Time;durP1;ratioP1;P1;durP2;ratioP2;P2;SDS_P1;SDS_P2;PMS_P1;PMS_P2;Temp;Humidity;BMP_temperature;BMP_pressure;BME280_temperature;BME280_humidity;BME280_pressure;Samples;Min_cycle;Max_cycle;Signal;HPM_P1;HPM_P2
2023/11/04 00:01:17;;;;;;;0.10;0.10;;;;;;;1.27;84.62;99864.47;4918655;28;20056;-69
2023/11/04 00:03:45;;;;;;;0.10;0.10;;;;;;;1.20;84.50;99861.00;4920037;28;20055;-69
2023/11/04 00:06:11;;;;;;;0.00;0.00;;;;;;;1.29;84.77;99858.91;4905481;28;20048;-69
2023/11/04 00:08:40;;;;;;;0.05;0.03;;;;;;;1.29;84.66;99864.28;4936479;29;20087;-70
2023/11/04 00:11:06;;;;;;;0.10;0.10;;;;;;;1.27;84.43;99862.63;4920815;29;20136;-70
2023/11/04 00:13:33;;;;;;;0.10;0.10;;;;;;;1.25;84.25;99867.41;4923106;29;20606;-70
2023/11/04 00:15:59;;;;;;;0.10;0.10;;;;;;;1.16;83.71;99867.81;4919791;28;20061;-70
2023/11/04 00:18:27;;;;;;;0.10;0.10;;;;;;;1.08;84.49;99871.56;4920217;29;20066;-69
2023/11/04 00:20:55;;;;;;;0.10;0.10;;;;;;;1.11;85.17;99877.38;4920604;29;20538;-70
2023/11/04 00:23:21;;;;;;;;;;;;;;;1.18;85.08;99868.47;4920746;29;20507;-70
2023/11/04 00:25:47;;;;;;;0.10;0.10;;;;;;;1.14;84.49;99876.13;4935718;28;19930;-70
2023/11/04 00:28:13;;;;;;;0.08;0.08;;;;;;;1.10;85.00;99872.22;4918389;29;20070;-69
2023/11/04 00:30:39;;;;;;;0.00;0.00;;;;;;;1.17;85.16;99880.25;4923028;29;20169;-69
2023/11/04 00:33:25;;;;;;;0.10;0.10;;;;;;;1.19;84.63;99870.13;4918470;29;20059;-69
2023/11/04 00:36:13;;;;;;;0.00;0.00;;;;;;;1.15;84.24;99868.84;4920499;29;20047;-70
2023/11/04 00:39:00;;;;;;;0.10;0.10;;;;;;;1.06;84.33;99874.47;4920141;29;20050;-69
2023/11/04 00:41:46;;;;;;;0.00;0.00;;;;;;;0.99;85.40;99868.28;4915675;29;20142;-70
2023/11/04 00:44:33;;;;;;;0.10;0.10;;;;;;;1.12;86.07;99875.50;4920292;28;20055;-70
2023/11/04 00:47:19;;;;;;;0.10;0.10;;;;;;;1.20;86.22;99880.66;4918968;29;20055;-70
2023/11/04 00:50:06;;;;;;;0.00;0.00;;;;;;;1.18;85.27;99855.81;4920824;29;20416;-69
2023/11/04 00:52:53;;;;;;;0.10;0.10;;;;;;;1.20;85.63;99864.50;4912544;28;20154;-69
2023/11/04 00:55:40;;;;;;;0.00;0.00;;;;;;;1.19;85.68;99868.22;4918660;29;20054;-69
2023/11/04 00:58:26;;;;;;;0.00;0.00;;;;;;;1.27;86.15;99862.63;4916287;29;20113;-69
2023/11/04 01:01:12;;;;;;;0.00;0.00;;;;;;;1.44;86.29;99864.00;4919512;29;20133;-69
2023/11/04 01:03:58;;;;;;;0.00;0.00;;;;;;;1.45;85.24;99853.03;4906556;29;20132;-70
2023/11/04 01:06:44;;;;;;;0.10;0.10;;;;;;;1.44;84.17;99864.84;4919064;28;20138;-69
2023/11/04 01:09:32;;;;;;;0.10;0.10;;;;;;;1.32;84.12;99863.84;4918066;29;20052;-69
2023/11/04 01:12:18;;;;;;;;;;;;;;;1.19;83.53;99870.94;4917168;28;20147;-69
2023/11/04 01:15:04;;;;;;;0.10;0.10;;;;;;;1.07;84.08;99870.75;4918905;29;19950;-69
2023/11/04 01:17:51;;;;;;;0.00;0.00;;;;;;;1.01;84.65;99857.28;4917625;29;20071;-69
2023/11/04 01:20:37;;;;;;;0.10;0.10;;;;;;;0.96;85.20;99858.75;4918048;29;20052;-69
2023/11/04 01:23:23;;;;;;;0.00;0.00;;;;;;;0.94;85.45;99860.00;4905341;29;20303;-69
2023/11/04 01:26:11;;;;;;;0.00;0.00;;;;;;;0.99;85.66;99866.41;4918854;29;20044;-69
2023/11/04 01:28:57;;;;;;;0.10;0.10;;;;;;;1.07;86.08;99865.38;4920210;28;20056;-69
2023/11/04 01:31:44;;;;;;;0.05;0.05;;;;;;;1.20;86.04;99867.19;4905459;29;20433;-69
2023/11/04 01:34:30;;;;;;;0.10;0.10;;;;;;;1.30;85.97;99853.28;4918226;28;20063;-69
2023/11/04 01:37:17;;;;;;;0.10;0.10;;;;;;;1.33;85.33;99860.13;4919094;29;20047;-70
2023/11/04 01:40:08;;;;;;;0.10;0.10;;;;;;;1.34;84.93;99872.53;4901986;29;20427;-70
2023/11/04 01:42:56;;;;;;;0.10;0.10;;;;;;;1.25;82.83;99862.00;4920044;29;20580;-70
2023/11/04 01:45:42;;;;;;;0.00;0.00;;;;;;;1.06;82.68;99870.94;4919729;28;20407;-70
2023/11/04 01:48:28;;;;;;;0.10;0.10;;;;;;;0.93;83.65;99866.44;4904495;29;20054;-70
2023/11/04 01:51:15;;;;;;;0.10;0.10;;;;;;;0.93;84.66;99861.84;4918944;29;20039;-70
2023/11/04 01:54:02;;;;;;;0.00;0.00;;;;;;;0.99;84.75;99870.97;4904989;29;20488;-70
2023/11/04 01:56:48;;;;;;;0.10;0.10;;;;;;;1.04;84.62;99860.41;4918059;28;20066;-70
2023/11/04 01:59:36;;;;;;;0.10;0.10;;;;;;;1.07;84.14;99869.91;4919250;28;20047;-70
2023/11/04 02:02:22;;;;;;;0.10;0.10;;;;;;;1.04;83.86;99873.88;4907496;29;20051;-70
2023/11/04 02:05:09;;;;;;;0.00;0.00;;;;;;;0.95;83.33;99872.44;4918668;28;20089;-70
2023/11/04 02:07:55;;;;;;;0.10;0.10;;;;;;;0.85;83.84;99851.31;4918341;29;20470;-70
2023/11/04 02:10:42;;;;;;;0.10;0.10;;;;;;;0.82;83.86;99851.75;4918801;28;20514;-70
2023/11/04 02:13:28;;;;;;;0.00;0.00;;;;;;;0.83;84.12;99861.47;4904529;29;20060;-70
2023/11/04 02:16:16;;;;;;;0.10;0.10;;;;;;;0.78;84.05;99843.25;4917672;29;20537;-70
2023/11/04 02:19:02;;;;;;;;;;;;;;;0.78;84.11;99839.72;4904713;29;20052;-70
2023/11/04 02:21:49;;;;;;;0.10;0.10;;;;;;;0.72;83.36;99837.88;4904166;29;19953;-69
2023/11/04 02:24:36;;;;;;;0.10;0.10;;;;;;;0.75;83.97;99834.75;4918152;29;20557;-70
2023/11/04 02:27:21;;;;;;;0.08;0.08;;;;;;;0.78;84.32;99851.31;4918603;29;20070;-69
2023/11/04 02:30:10;;;;;;;0.10;0.10;;;;;;;0.76;84.69;99837.25;4903239;28;20513;-70
2023/11/04 02:32:56;;;;;;;0.10;0.10;;;;;;;0.68;84.59;99814.06;4911660;28;20497;-69
2023/11/04 02:35:43;;;;;;;0.10;0.10;;;;;;;0.82;84.03;99831.00;4906868;29;20125;-69
2023/11/04 02:38:30;;;;;;;0.10;0.10;;;;;;;0.85;84.21;99829.78;4904609;29;20074;-70
2023/11/04 02:41:17;;;;;;;0.10;0.10;;;;;;;0.84;84.85;99822.75;4905305;29;20050;-71
2023/11/04 02:44:03;;;;;;;0.10;0.10;;;;;;;0.93;84.79;99823.34;4915301;29;20062;-70
2023/11/04 02:46:49;;;;;;;0.10;0.10;;;;;;;0.99;84.42;99831.41;4917533;28;20062;-69
2023/11/04 02:49:35;;;;;;;0.10;0.10;;;;;;;0.95;82.95;99818.56;4904694;29;20051;-69
2023/11/04 02:52:21;;;;;;;0.00;0.00;;;;;;;0.90;83.75;99821.88;4915258;29;20047;-69
2023/11/04 02:55:09;;;;;;;0.03;0.03;;;;;;;0.88;83.80;99823.16;4915150;29;20055;-69
2023/11/04 02:57:55;;;;;;;0.00;0.00;;;;;;;0.87;84.48;99813.44;4917728;29;20149;-70
2023/11/04 03:00:42;;;;;;;0.10;0.10;;;;;;;0.97;85.21;99811.94;4918185;28;20052;-69
2023/11/04 03:03:28;;;;;;;0.10;0.10;;;;;;;1.11;85.07;99815.41;4916977;29;20055;-69
2023/11/04 03:06:20;;;;;;;0.00;0.00;;;;;;;1.16;84.36;99809.41;4917613;29;20070;-69
2023/11/04 03:09:06;;;;;;;0.10;0.10;;;;;;;1.23;84.62;99799.41;4910453;28;20111;-69
2023/11/04 03:11:56;;;;;;;0.00;0.00;;;;;;;1.18;84.13;99815.41;4918486;29;20051;-70
2023/11/04 03:14:43;;;;;;;0.10;0.10;;;;;;;1.22;84.34;99813.13;4904129;29;20059;-69
2023/11/04 03:17:29;;;;;;;0.10;0.10;;;;;;;1.12;83.60;99813.56;4918019;29;20043;-70
2023/11/04 03:20:15;;;;;;;0.00;0.00;;;;;;;1.05;83.77;99796.59;4916784;28;20048;-69
2023/11/04 03:23:01;;;;;;;0.10;0.10;;;;;;;1.04;83.76;99801.16;4914211;28;20059;-69
2023/11/04 03:25:47;;;;;;;0.00;0.00;;;;;;;0.89;83.44;99798.69;4903623;29;20064;-70
2023/11/04 03:28:37;;;;;;;0.10;0.10;;;;;;;0.75;83.35;99778.22;4916852;29;20119;-69
2023/11/04 03:31:23;;;;;;;0.10;0.10;;;;;;;0.68;83.91;99781.78;4904497;29;20385;-69
2023/11/04 03:34:09;;;;;;;0.10;0.10;;;;;;;0.69;84.61;99787.97;4917420;29;20056;-69
2023/11/04 03:36:56;;;;;;;0.10;0.10;;;;;;;0.75;85.47;99791.69;4915315;29;20051;-69
2023/11/04 03:39:41;;;;;;;0.00;0.00;;;;;;;0.70;84.88;99768.94;4919987;29;20059;-69
2023/11/04 03:42:27;;;;;;;0.10;0.10;;;;;;;0.66;83.75;99786.53;4920522;29;20051;-69
2023/11/04 03:45:15;;;;;;;0.00;0.00;;;;;;;0.56;83.74;99784.28;4908050;28;20056;-70
2023/11/04 03:48:01;;;;;;;0.10;0.10;;;;;;;0.55;84.68;99797.94;4906912;28;20569;-70
2023/11/04 03:50:47;;;;;;;0.10;0.10;;;;;;;0.48;85.02;99776.41;4906678;29;20539;-69
2023/11/04 03:53:33;;;;;;;0.00;0.00;;;;;;;0.69;85.45;99775.34;4919929;29;20060;-70
2023/11/04 03:56:19;;;;;;;0.00;0.00;;;;;;;0.66;84.39;99791.94;4919906;28;20150;-70
2023/11/04 03:59:05;;;;;;;0.10;0.10;;;;;;;0.54;84.16;99790.91;4918657;29;20150;-70
2023/11/04 04:01:52;;;;;;;0.10;0.10;;;;;;;0.54;84.64;99782.81;4919710;29;20075;-70
2023/11/04 04:04:38;;;;;;;;;;;;;;;0.50;84.67;99781.59;4919623;29;20139;-69
2023/11/04 04:07:24;;;;;;;0.10;0.10;;;;;;;0.48;85.03;99776.41;4919281;29;19946;-70
2023/11/04 04:10:11;;;;;;;0.10;0.10;;;;;;;0.51;85.46;99775.19;4919891;29;20048;-70
2023/11/04 04:12:57;;;;;;;0.10;0.10;;;;;;;0.50;85.61;99760.88;4903734;28;20059;-69
2023/11/04 04:15:43;;;;;;;0.00;0.00;;;;;;;0.64;86.44;99753.63;4917383;29;20147;-71
2023/11/04 04:18:30;;;;;;;0.10;0.10;;;;;;;0.77;86.43;99752.75;4917313;29;20476;-72
2023/11/04 04:21:17;;;;;;;0.00;0.00;;;;;;;0.79;85.51;99749.88;4919669;29;20084;-69
2023/11/04 04:24:03;;;;;;;0.10;0.10;;;;;;;0.78;85.93;99762.50;4905289;29;20347;-70
2023/11/04 04:26:49;;;;;;;0.10;0.10;;;;;;;0.77;86.04;99770.75;4919526;28;20039;-69
2023/11/04 04:29:36;;;;;;;0.10;0.10;;;;;;;0.66;85.28;99751.56;4917353;29;20330;-70
2023/11/04 04:32:22;;;;;;;0.00;0.00;;;;;;;0.64;85.97;99748.25;4902547;29;20058;-70
2023/11/04 04:35:10;;;;;;;0.00;0.00;;;;;;;0.70;85.55;99762.69;4917921;29;20429;-70
2023/11/04 04:37:56;;;;;;;0.10;0.10;;;;;;;0.63;86.07;99751.97;4920483;28;20051;-70
2023/11/04 04:40:42;;;;;;;0.00;0.00;;;;;;;0.67;85.85;99753.22;4920873;28;20561;-70
2023/11/04 04:43:28;;;;;;;0.10;0.10;;;;;;;0.77;86.30;99751.91;4919999;29;21173;-70
2023/11/04 04:46:15;;;;;;;0.00;0.00;;;;;;;0.76;85.64;99769.13;4920614;29;20047;-70
2023/11/04 04:49:01;;;;;;;0.10;0.10;;;;;;;0.77;85.79;99758.16;4905384;29;20051;-69
2023/11/04 04:51:48;;;;;;;0.10;0.10;;;;;;;0.75;85.87;99757.53;4919431;29;20251;-68
2023/11/04 04:54:34;;;;;;;;;;;;;;;0.77;85.85;99744.69;4919043;29;20047;-69
2023/11/04 04:57:20;;;;;;;0.10;0.10;;;;;;;0.82;85.62;99750.25;4919346;28;19938;-71
2023/11/04 05:00:08;;;;;;;0.00;0.00;;;;;;;0.81;85.81;99756.69;4919036;29;20139;-71
2023/11/04 05:02:53;;;;;;;;;;;;;;;0.84;85.39;99744.66;4919325;28;20098;-70
2023/11/04 05:05:40;;;;;;;0.10;0.10;;;;;;;0.69;85.58;99728.75;4919167;29;20049;-70
2023/11/04 05:08:27;;;;;;;0.08;0.08;;;;;;;0.81;86.12;99721.69;4905121;28;20617;-70
2023/11/04 05:11:16;;;;;;;0.10;0.10;;;;;;;0.78;86.39;99740.13;4920308;29;20050;-69
2023/11/04 05:14:03;;;;;;;0.10;0.10;;;;;;;0.85;86.36;99746.31;4918328;29;20181;-69
2023/11/04 05:16:49;;;;;;;0.10;0.10;;;;;;;0.84;86.07;99736.59;4920117;29;20059;-69
2023/11/04 05:19:35;;;;;;;0.10;0.10;;;;;;;0.82;86.28;99733.28;4918186;29;20071;-69
2023/11/04 05:22:23;;;;;;;0.10;0.10;;;;;;;0.82;86.18;99741.38;4918147;29;20521;-69
2023/11/04 05:25:11;;;;;;;0.10;0.10;;;;;;;0.81;86.74;99742.41;4915191;29;20121;-69
2023/11/04 05:27:58;;;;;;;0.10;0.10;;;;;;;0.88;86.50;99747.78;4914620;29;20454;-69
2023/11/04 05:30:44;;;;;;;0.00;0.00;;;;;;;0.85;86.08;99755.22;4917549;29;20047;-69
2023/11/04 05:33:30;;;;;;;0.10;0.10;;;;;;;0.85;85.90;99749.00;4919543;28;20442;-69
2023/11/04 05:36:18;;;;;;;0.10;0.10;;;;;;;0.87;86.14;99759.59;4912920;29;20478;-71
2023/11/04 05:39:05;;;;;;;0.10;0.10;;;;;;;0.93;85.49;99739.88;4914283;29;20423;-69
2023/11/04 05:41:52;;;;;;;0.10;0.10;;;;;;;0.91;85.39;99726.63;4904536;29;20260;-69
2023/11/04 05:44:38;;;;;;;;;;;;;;;0.98;85.36;99713.97;4918769;29;20051;-69
2023/11/04 05:47:24;;;;;;;0.00;0.00;;;;;;;1.07;85.17;99714.56;4918209;29;19938;-69
2023/11/04 05:50:10;;;;;;;0.13;0.10;;;;;;;1.11;84.94;99721.16;4913759;29;20079;-69
2023/11/04 05:52:56;;;;;;;0.00;0.00;;;;;;;1.10;84.80;99722.19;4919794;29;20078;-70
2023/11/04 05:55:42;;;;;;;0.10;0.10;;;;;;;1.13;85.02;99715.56;4917839;29;20101;-71
2023/11/04 05:58:30;;;;;;;0.10;0.10;;;;;;;1.16;85.11;99709.75;4920305;29;20468;-69
2023/11/04 06:01:22;;;;;;;0.10;0.10;;;;;;;1.25;84.91;99703.06;4899247;28;20715;-69
2023/11/04 06:04:10;;;;;;;0.10;0.10;;;;;;;1.31;84.84;99716.72;4913618;29;20074;-69
2023/11/04 06:06:56;;;;;;;0.17;0.10;;;;;;;1.35;84.84;99720.63;4913506;29;20078;-69
2023/11/04 06:09:43;;;;;;;0.10;0.10;;;;;;;1.36;84.76;99724.97;4918204;28;20051;-69
2023/11/04 06:12:29;;;;;;;0.10;0.10;;;;;;;1.35;84.21;99726.00;4919404;29;20098;-69
2023/11/04 06:15:17;;;;;;;0.10;0.10;;;;;;;1.37;84.54;99719.38;4918137;29;20162;-70
2023/11/04 06:18:03;;;;;;;0.00;0.00;;;;;;;1.27;84.27;99717.16;4226691;28;10001609;-70
2023/11/04 06:20:49;;;;;;;0.10;0.10;;;;;;;1.31;84.68;99719.41;4901121;29;20529;-70
2023/11/04 06:23:35;;;;;;;0.00;0.00;;;;;;;1.38;84.64;99726.41;4901104;28;20051;-70
2023/11/04 06:26:22;;;;;;;0.00;0.00;;;;;;;1.27;83.74;99730.63;4913165;29;20571;-70
2023/11/04 06:29:08;;;;;;;0.10;0.10;;;;;;;1.19;84.59;99705.81;4913545;29;20086;-69
2023/11/04 06:31:56;;;;;;;0.00;0.00;;;;;;;1.42;84.07;99730.31;4916071;29;20418;-69
2023/11/04 06:34:43;;;;;;;0.10;0.10;;;;;;;1.36;83.62;99739.28;4914234;29;20515;-70
2023/11/04 06:37:29;;;;;;;0.10;0.10;;;;;;;1.34;83.74;99735.13;4912538;28;20138;-69
2023/11/04 06:40:15;;;;;;;0.10;0.10;;;;;;;1.35;83.43;99734.09;4912218;29;20903;-69
2023/11/04 06:43:01;;;;;;;0.00;0.00;;;;;;;1.26;83.47;99725.44;4913546;29;20063;-70
2023/11/04 06:45:47;;;;;;;0.00;0.00;;;;;;;1.29;82.97;99718.81;4915441;29;20143;-71
2023/11/04 06:48:35;;;;;;;0.10;0.10;;;;;;;1.31;82.94;99736.38;4902674;28;20151;-69
2023/11/04 06:51:21;;;;;;;;;;;;;;;1.30;82.56;99734.72;4913558;29;20048;-70
2023/11/04 06:53:49;;;;;;;0.10;0.10;;;;;;;1.32;82.58;99721.88;4914009;29;20342;-70
2023/11/04 06:56:15;;;;;;;0.10;0.10;;;;;;;1.40;82.94;99728.88;4929325;29;20039;-70
2023/11/04 06:58:41;;;;;;;0.10;0.10;;;;;;;1.40;82.47;99726.19;4914624;29;20070;-70
2023/11/04 07:01:12;;;;;;;0.10;0.10;;;;;;;1.39;82.84;99725.38;4916086;29;20056;-70
2023/11/04 07:03:40;;;;;;;0.10;0.10;;;;;;;1.36;82.07;99739.28;4918475;29;20052;-70
2023/11/04 07:06:12;;;;;;;0.10;0.10;;;;;;;1.33;82.58;99739.72;4918869;29;20047;-70
2023/11/04 07:08:38;;;;;;;0.10;0.10;;;;;;;1.29;82.67;99718.81;4921432;28;20430;-71
2023/11/04 07:11:04;;;;;;;0.10;0.10;;;;;;;1.42;83.30;99714.16;4919564;29;20066;-71
2023/11/04 07:13:31;;;;;;;0.10;0.10;;;;;;;1.58;82.52;99717.38;4904922;29;20048;-69
2023/11/04 07:15:57;;;;;;;0.10;0.10;;;;;;;1.74;82.41;99717.88;4919721;29;20047;-69
2023/11/04 07:18:24;;;;;;;0.10;0.10;;;;;;;1.75;81.20;99725.78;4922820;29;20052;-71
2023/11/04 07:20:51;;;;;;;0.10;0.10;;;;;;;1.78;81.68;99716.41;4918743;29;20063;-70
2023/11/04 07:23:17;;;;;;;0.10;0.10;;;;;;;1.86;81.28;99715.31;4576342;28;10000217;-71
2023/11/04 07:25:44;;;;;;;0.10;0.10;;;;;;;2.00;81.42;99722.25;4916977;29;20395;-70
2023/11/04 07:28:10;;;;;;;0.10;0.10;;;;;;;2.05;80.93;99718.91;4917171;29;20316;-69
2023/11/04 07:30:37;;;;;;;0.10;0.10;;;;;;;2.01;80.43;99731.19;4919544;29;20047;-70
2023/11/04 07:33:04;;;;;;;0.10;0.10;;;;;;;1.97;81.32;99725.38;4918179;29;20594;-69
2023/11/04 07:35:30;;;;;;;0.10;0.10;;;;;;;2.02;80.97;99720.16;4913255;28;20086;-69
2023/11/04 07:37:58;;;;;;;0.10;0.10;;;;;;;2.09;80.79;99717.41;4917020;29;20056;-69
2023/11/04 07:40:24;;;;;;;0.10;0.10;;;;;;;2.19;80.79;99704.25;4916626;29;20084;-71
2023/11/04 07:42:52;;;;;;;0.10;0.10;;;;;;;2.29;79.86;99708.31;4934111;29;20074;-71
2023/11/04 07:45:18;;;;;;;0.10;0.10;;;;;;;2.34;79.80;99714.72;4932979;29;20078;-71
2023/11/04 07:47:45;;;;;;;0.10;0.10;;;;;;;2.35;79.26;99707.41;4917441;29;20514;-71
2023/11/04 07:50:12;;;;;;;0.10;0.10;;;;;;;2.33;78.97;99706.81;4914290;28;20128;-71
2023/11/04 07:52:41;;;;;;;0.10;0.10;;;;;;;2.39;79.18;99698.66;4900168;29;20047;-69
2023/11/04 07:55:09;;;;;;;0.10;0.10;;;;;;;2.43;78.82;99695.50;4919574;28;20051;-69
2023/11/04 07:57:36;;;;;;;0.10;0.10;;;;;;;2.43;78.36;99687.41;4913271;29;20400;-69
2023/11/04 08:00:06;;;;;;;0.10;0.10;;;;;;;2.52;78.11;99697.69;4911869;29;20048;-70
2023/11/04 08:02:33;;;;;;;0.10;0.10;;;;;;;2.52;78.50;99703.09;4918198;29;20188;-69
2023/11/04 08:04:59;;;;;;;0.10;0.10;;;;;;;2.64;78.45;99705.84;4919477;29;20534;-68
2023/11/04 08:07:25;;;;;;;0.10;0.10;;;;;;;2.69;77.74;99707.91;4920051;29;20213;-69
2023/11/04 08:09:52;;;;;;;0.10;0.10;;;;;;;2.71;77.59;99710.38;4937022;29;20131;-70
2023/11/04 08:12:19;;;;;;;0.25;0.10;;;;;;;2.59;77.01;99694.13;4921477;28;20514;-71
2023/11/04 08:14:45;;;;;;;;;;;;;;;2.49;78.03;99694.59;4922598;29;20050;-74
2023/11/04 08:17:11;;;;;;;0.10;0.10;;;;;;;2.62;78.34;99685.56;4920111;29;20267;-72
2023/11/04 08:19:38;;;;;;;0.10;0.10;;;;;;;2.66;78.01;99700.25;4919166;29;20048;-72
2023/11/04 08:22:04;;;;;;;0.10;0.10;;;;;;;2.69;78.21;99695.22;4921219;28;20059;-72
2023/11/04 08:24:31;;;;;;;0.10;0.10;;;;;;;2.69;77.54;99680.91;4922026;28;20044;-71
2023/11/04 08:26:58;;;;;;;0.10;0.10;;;;;;;2.65;77.44;99687.81;4920819;29;20052;-70
2023/11/04 08:29:25;;;;;;;0.10;0.10;;;;;;;2.51;78.27;99700.63;4920426;28;20094;-69
2023/11/04 08:31:51;;;;;;;0.10;0.10;;;;;;;2.36;78.57;99704.50;4919763;29;20553;-68
2023/11/04 08:34:18;;;;;;;0.10;0.10;;;;;;;2.26;79.36;99704.19;4920753;29;20170;-68
2023/11/04 08:36:44;;;;;;;0.10;0.10;;;;;;;2.26;80.16;99710.44;4904900;29;20048;-69
2023/11/04 08:39:10;;;;;;;0.10;0.10;;;;;;;2.25;80.17;99705.22;4919514;29;20043;-68
2023/11/04 08:41:36;;;;;;;0.10;0.10;;;;;;;2.29;80.67;99702.94;4919732;29;20086;-71
2023/11/04 08:44:03;;;;;;;0.10;0.10;;;;;;;2.33;80.41;99704.13;4921005;29;20434;-71
2023/11/04 08:46:31;;;;;;;0.10;0.10;;;;;;;2.43;80.50;99717.94;4920035;29;20059;-71
2023/11/04 08:48:57;;;;;;;0.10;0.10;;;;;;;2.49;79.88;99692.75;4919942;29;20040;-71
2023/11/04 08:51:23;;;;;;;0.10;0.10;;;;;;;2.59;79.34;99694.13;4919256;29;20139;-71
2023/11/04 08:53:49;;;;;;;0.10;0.10;;;;;;;2.61;79.86;99667.72;4919030;29;20383;-71
2023/11/04 08:56:16;;;;;;;0.10;0.10;;;;;;;2.82;78.98;99693.44;4921611;29;20151;-71
2023/11/04 08:58:45;;;;;;;0.10;0.10;;;;;;;2.86;78.88;99674.88;4920321;29;20046;-71
2023/11/04 09:01:14;;;;;;;0.10;0.10;;;;;;;3.09;78.93;99675.00;4918390;29;20066;-71
2023/11/04 09:03:42;;;;;;;0.10;0.10;;;;;;;3.12;78.67;99668.31;4917970;28;20044;-71
2023/11/04 09:06:08;;;;;;;;;;;;;;;3.06;78.40;99663.81;4941859;28;20504;-70
2023/11/04 09:08:34;;;;;;;0.10;0.10;;;;;;;2.94;79.11;99661.06;4918132;29;19949;-69
2023/11/04 09:11:00;;;;;;;0.10;0.10;;;;;;;2.91;79.23;99635.34;4920578;29;20113;-69
2023/11/04 09:13:27;;;;;;;0.10;0.10;;;;;;;2.94;79.99;99621.38;4934092;28;20079;-68
2023/11/04 09:15:54;;;;;;;0.10;0.10;;;;;;;3.00;79.57;99605.31;4901502;28;20048;-68
2023/11/04 09:18:20;;;;;;;0.10;0.10;;;;;;;3.06;79.71;99607.09;4918182;29;20396;-68
2023/11/04 09:20:48;;;;;;;0.10;0.10;;;;;;;3.15;79.60;99608.44;4919674;29;20086;-71
2023/11/04 09:23:14;;;;;;;0.10;0.10;;;;;;;3.22;78.88;99598.31;4933009;29;20098;-71
2023/11/04 09:25:40;;;;;;;0.10;0.10;;;;;;;3.28;79.09;99584.94;4921294;28;20491;-71
2023/11/04 09:28:07;;;;;;;0.10;0.10;;;;;;;3.39;78.96;99584.16;4923375;29;20423;-72
2023/11/04 09:30:33;;;;;;;0.10;0.10;;;;;;;3.52;78.72;99580.41;4918183;29;20058;-70
2023/11/04 09:32:59;;;;;;;0.38;0.13;;;;;;;3.69;78.58;99575.97;4921729;29;20043;-69
2023/11/04 09:35:25;;;;;;;0.10;0.10;;;;;;;3.80;78.02;99578.88;4918085;28;20063;-69
2023/11/04 09:37:53;;;;;;;0.13;0.13;;;;;;;3.89;77.70;99576.66;4915814;28;20054;-69
2023/11/04 09:40:19;;;;;;;0.20;0.20;;;;;;;3.95;77.65;99549.47;4918877;29;20655;-69
2023/11/04 09:42:47;;;;;;;0.20;0.20;;;;;;;4.15;77.15;99551.00;4918459;28;20550;-68
2023/11/04 09:45:15;;;;;;;;;;;;;;;4.26;76.47;99543.91;4932013;29;20096;-68
2023/11/04 09:47:42;;;;;;;0.10;0.10;;;;;;;4.21;75.88;99538.38;4920449;29;19926;-69
2023/11/04 09:50:10;;;;;;;0.10;0.10;;;;;;;4.23;76.27;99537.06;4900291;29;20055;-70
2023/11/04 09:52:38;;;;;;;0.10;0.10;;;;;;;4.24;76.30;99529.78;4921622;29;20522;-71
2023/11/04 09:55:07;;;;;;;0.10;0.10;;;;;;;4.32;76.21;99532.09;4922032;29;20546;-68
2023/11/04 09:57:33;;;;;;;0.10;0.10;;;;;;;4.33;76.05;99532.94;4916671;29;20054;-71
2023/11/04 10:00:01;;;;;;;0.10;0.10;;;;;;;4.31;75.79;99527.75;4920316;29;20139;-71
2023/11/04 10:02:30;;;;;;;0.10;0.10;;;;;;;4.31;76.45;99529.66;4936558;29;20063;-68
2023/11/04 10:04:58;;;;;;;0.10;0.10;;;;;;;4.50;76.39;99533.00;4918112;29;20160;-71
2023/11/04 10:07:24;;;;;;;;;;;;;;;4.71;75.88;99533.41;4920522;29;20052;-71
2023/11/04 10:09:50;;;;;;;0.10;0.10;;;;;;;4.75;75.23;99512.88;4920888;28;19938;-71
2023/11/04 10:12:18;;;;;;;0.10;0.10;;;;;;;4.81;74.70;99493.75;4923635;29;20054;-71
2023/11/04 10:14:44;;;;;;;0.10;0.10;;;;;;;4.75;74.79;99508.25;4919633;29;20138;-71
2023/11/04 10:17:12;;;;;;;0.10;0.10;;;;;;;4.67;75.21;99508.69;4924162;29;20151;-71
2023/11/04 10:19:38;;;;;;;0.15;0.10;;;;;;;4.66;75.55;99520.56;4921921;28;20050;-71
2023/11/04 10:22:05;;;;;;;0.10;0.10;;;;;;;4.61;75.70;99507.75;4920949;29;20117;-71
2023/11/04 10:24:31;;;;;;;0.10;0.10;;;;;;;4.58;75.96;99510.94;4920028;29;20145;-71
2023/11/04 10:26:57;;;;;;;0.10;0.10;;;;;;;4.51;76.19;99515.69;4921721;29;20054;-70
2023/11/04 10:29:25;;;;;;;0.10;0.10;;;;;;;4.50;76.43;99524.88;4934365;29;20043;-71
2023/11/04 10:31:53;;;;;;;;;;;;;;;4.51;76.87;99518.38;4922534;29;20410;-71
2023/11/04 10:34:25;;;;;;;0.10;0.10;;;;;;;4.50;76.76;99520.28;4917963;29;20086;-71
2023/11/04 10:36:54;;;;;;;0.10;0.10;;;;;;;4.56;76.81;99494.13;4935509;29;20051;-71
2023/11/04 10:39:23;;;;;;;0.10;0.10;;;;;;;4.66;77.08;99494.28;4921434;29;20044;-71
2023/11/04 10:41:56;;;;;;;0.13;0.13;;;;;;;4.77;76.86;99481.78;4934824;29;20048;-71
2023/11/04 10:44:28;;;;;;;0.10;0.10;;;;;;;4.81;76.71;99472.09;4921180;29;20055;-71
2023/11/04 10:46:59;;;;;;;0.10;0.10;;;;;;;4.82;76.38;99472.91;4921757;29;20553;-71
2023/11/04 10:49:30;;;;;;;0.10;0.10;;;;;;;4.82;76.44;99464.78;4934021;28;20047;-71
2023/11/04 10:52:03;;;;;;;0.10;0.10;;;;;;;4.77;76.36;99464.69;4917373;29;20131;-72
2023/11/04 10:54:35;;;;;;;0.10;0.10;;;;;;;4.74;76.95;99455.16;4909512;28;20056;-70
2023/11/04 10:57:10;;;;;;;0.10;0.10;;;;;;;4.80;76.45;99467.75;4917163;29;20146;-71
2023/11/04 10:59:45;;;;;;;0.10;0.10;;;;;;;4.77;76.84;99472.81;4917195;28;20039;-71
2023/11/04 11:02:12;;;;;;;0.10;0.10;;;;;;;4.74;76.58;99479.53;4916747;29;20507;-71
2023/11/04 11:04:40;;;;;;;0.10;0.10;;;;;;;4.69;77.35;99474.03;4919124;28;20444;-71
2023/11/04 11:07:10;;;;;;;0.20;0.20;;;;;;;4.70;77.73;99469.47;4919767;29;20095;-71
2023/11/04 11:09:37;;;;;;;0.10;0.10;;;;;;;4.75;77.57;99450.56;4919710;28;20138;-71
2023/11/04 11:12:10;;;;;;;0.10;0.10;;;;;;;4.80;77.65;99450.66;4918445;29;20546;-72
2023/11/04 11:14:38;;;;;;;0.10;0.10;;;;;;;4.82;77.87;99443.94;4921324;29;20510;-71
2023/11/04 11:17:05;;;;;;;0.10;0.10;;;;;;;4.94;77.21;99454.69;4922614;29;20066;-71
2023/11/04 11:19:33;;;;;;;0.10;0.10;;;;;;;4.89;77.02;99459.19;4917813;28;20188;-71
2023/11/04 11:22:02;;;;;;;;;;;;;;;4.78;77.27;99467.16;4921469;29;20768;-71
2023/11/04 11:24:29;;;;;;;0.10;0.10;;;;;;;4.74;77.54;99473.31;4919225;28;20404;-71
2023/11/04 11:26:59;;;;;;;0.10;0.10;;;;;;;4.74;77.87;99478.72;4919314;28;20468;-71
2023/11/04 11:29:26;;;;;;;0.10;0.10;;;;;;;4.80;78.11;99484.00;4919391;29;20063;-70
2023/11/04 11:32:05;;;;;;;0.10;0.10;;;;;;;4.91;78.15;99482.28;4916841;29;20079;-71
2023/11/04 11:34:32;;;;;;;0.10;0.10;;;;;;;4.91;77.66;99479.56;4918213;29;20506;-68
2023/11/04 11:37:00;;;;;;;0.10;0.10;;;;;;;4.93;77.72;99474.72;4930789;28;20094;-69
2023/11/04 11:39:27;;;;;;;0.10;0.10;;;;;;;4.91;77.71;99467.91;4911995;29;20052;-68
2023/11/04 11:41:54;;;;;;;0.10;0.10;;;;;;;4.92;77.59;99470.38;4915100;28;20066;-68
2023/11/04 11:44:21;;;;;;;0.30;0.13;;;;;;;4.98;77.68;99471.28;4918507;29;20054;-68
2023/11/04 11:46:48;;;;;;;0.10;0.10;;;;;;;5.03;77.41;99478.69;4915530;28;20044;-69
2023/11/04 11:49:15;;;;;;;0.10;0.10;;;;;;;4.99;77.42;99483.75;4934982;29;20054;-71
2023/11/04 11:51:42;;;;;;;0.10;0.10;;;;;;;4.94;77.75;99486.41;4920074;29;20048;-71
2023/11/04 11:54:10;;;;;;;0.08;0.08;;;;;;;4.89;78.19;99489.00;4918929;29;20051;-71
2023/11/04 11:56:36;;;;;;;0.10;0.10;;;;;;;4.89;78.39;99483.59;4920624;29;20921;-71
2023/11/04 11:59:06;;;;;;;0.10;0.10;;;;;;;4.91;78.44;99479.56;4918236;29;20209;-71
2023/11/04 12:01:33;;;;;;;0.10;0.10;;;;;;;4.87;78.87;99474.88;4913965;28;20058;-71
2023/11/04 12:04:01;;;;;;;0.17;0.17;;;;;;;4.75;79.33;99461.41;4917958;29;20423;-71
2023/11/04 12:06:30;;;;;;;0.10;0.10;;;;;;;4.73;79.89;99463.53;4919278;29;20634;-71
2023/11/04 12:08:57;;;;;;;0.10;0.10;;;;;;;4.74;80.18;99460.56;4919594;29;20439;-71
2023/11/04 12:11:24;;;;;;;0.35;0.10;;;;;;;4.75;80.38;99456.81;4916754;29;20138;-71
2023/11/04 12:13:50;;;;;;;0.20;0.20;;;;;;;4.71;80.63;99455.66;4923332;29;20063;-71
2023/11/04 12:16:17;;;;;;;0.10;0.10;;;;;;;4.77;80.71;99454.69;4907058;29;20165;-71
2023/11/04 12:18:46;;;;;;;0.10;0.10;;;;;;;4.74;81.09;99462.47;4904613;29;20105;-71
2023/11/04 12:21:13;;;;;;;0.10;0.10;;;;;;;4.66;81.28;99463.69;4923670;29;20051;-71
2023/11/04 12:23:41;;;;;;;0.10;0.10;;;;;;;4.63;81.71;99462.28;4919452;29;20052;-71
2023/11/04 12:26:08;;;;;;;0.10;0.10;;;;;;;4.59;82.25;99438.63;4922723;29;20415;-71
2023/11/04 12:28:38;;;;;;;0.10;0.10;;;;;;;4.58;82.77;99442.41;4934361;29;20463;-68